Time;durP1;ratioP1;P1;durP2;ratioP2;P2;SDS_P1;SDS_P2;PMS_P1;PMS_P2;Temp;Humidity;BMP_temperature;BMP_pressure;BME280_temperature;BME280_humidity;BME280_pressure;Samples;Min_cycle;Max_cycle;Signal;HPM_P1;HPM_P2
2023/02/09 00:01:08;;;;;;;18.05;11.10;;;-0.80;99.90;;;;;;5051252;28;20388;-55
2023/02/09 00:03:35;;;;;;;21.55;11.65;;;-0.80;99.90;;;;;;5051215;28;20048;-51
2023/02/09 00:06:02;;;;;;;24.52;12.73;;;-0.70;99.90;;;;;;5051412;28;20029;-52
2023/02/09 00:08:28;;;;;;;25.27;13.32;;;-0.50;99.90;;;;;;5051530;28;20025;-57
2023/02/09 00:10:54;;;;;;;24.50;12.23;;;-0.50;99.90;;;;;;5051385;28;20030;-54
2023/02/09 00:13:24;;;;;;;18.38;11.07;;;-0.40;99.90;;;;;;5051548;28;20051;-54
2023/02/09 00:15:55;;;;;;;23.27;12.10;;;-0.30;99.90;;;;;;5033396;28;20411;-55
2023/02/09 00:18:22;;;;;;;17.23;11.02;;;-0.30;99.90;;;;;;5051646;28;20028;-54
2023/02/09 00:21:06;;;;;;;21.00;11.90;;;-0.40;99.90;;;;;;5051690;28;20039;-52
2023/02/09 00:23:34;;;;;;;22.10;11.60;;;-0.50;99.90;;;;;;5033341;28;20028;-54
2023/02/09 00:26:01;;;;;;;27.80;11.27;;;-0.60;99.90;;;;;;5052096;28;20061;-53
2023/02/09 00:28:27;;;;;;;20.35;11.27;;;-0.60;99.90;;;;;;5052691;28;20082;-54
2023/02/09 00:30:53;;;;;;;22.83;11.82;;;-0.60;99.90;;;;;;5051891;28;20036;-53
2023/02/09 00:33:18;;;;;;;19.30;10.38;;;-0.70;99.90;;;;;;5034096;28;20025;-54
2023/02/09 00:35:44;;;;;;;18.85;11.35;;;-0.70;99.90;;;;;;5051536;28;20104;-52
2023/02/09 00:38:11;;;;;;;20.05;11.68;;;-0.80;99.90;;;;;;5051661;28;20025;-53
2023/02/09 00:40:38;;;;;;;21.27;11.57;;;-0.80;99.90;;;;;;5033892;28;20028;-54
2023/02/09 00:43:04;;;;;;;19.60;12.07;;;-0.90;99.90;;;;;;5050991;28;20082;-52
2023/02/09 00:45:30;;;;;;;21.23;11.43;;;-1.00;99.90;;;;;;5052739;28;20074;-55
2023/02/09 00:47:56;;;;;;;23.25;11.50;;;-1.00;99.90;;;;;;5052460;28;20431;-56
2023/02/09 00:50:22;;;;;;;21.67;12.75;;;-1.00;99.90;;;;;;5052269;28;20052;-56
2023/02/09 00:52:48;;;;;;;25.45;12.40;;;-0.90;99.90;;;;;;5052446;28;20381;-51
2023/02/09 00:55:13;;;;;;;25.17;13.10;;;-0.80;99.90;;;;;;5052289;28;20040;-54
2023/02/09 00:57:39;;;;;;;22.58;12.50;;;-0.80;99.90;;;;;;5050885;28;20127;-54
2023/02/09 01:00:06;;;;;;;22.17;13.13;;;-0.80;99.90;;;;;;5050923;28;20081;-53
2023/02/09 01:02:32;;;;;;;21.55;12.60;;;-0.80;99.90;;;;;;5053249;28;20037;-51
2023/02/09 01:04:57;;;;;;;23.08;13.68;;;-0.80;99.90;;;;;;5054520;28;20537;-53
2023/02/09 01:07:23;;;;;;;23.40;11.85;;;-0.90;99.90;;;;;;5054595;28;20025;-55
2023/02/09 01:09:48;;;;;;;27.50;13.35;;;-1.00;99.90;;;;;;5036621;28;20151;-51
2023/02/09 01:12:14;;;;;;;24.30;13.77;;;-1.00;99.90;;;;;;5054394;28;20040;-53
2023/02/09 01:14:40;;;;;;;24.52;12.95;;;;;;;;;;5054299;28;20033;-51
2023/02/09 01:17:06;;;;;;;22.70;12.38;;;-1.20;99.90;;;;;;5054243;28;20056;-57
2023/02/09 01:19:32;;;;;;;23.83;14.23;;;-1.30;99.90;;;;;;5054347;28;20553;-52
2023/02/09 01:21:57;;;;;;;24.13;12.52;;;-1.30;99.90;;;;;;5054349;28;20104;-54
2023/02/09 01:24:23;;;;;;;27.50;14.02;;;-1.30;99.90;;;;;;5054033;28;20484;-56
2023/02/09 01:26:48;;;;;;;28.30;13.10;;;-1.30;99.90;;;;;;5054034;28;20016;-58
2023/02/09 01:29:16;;;;;;;24.80;14.00;;;-1.20;99.90;;;;;;5054170;28;20452;-56
2023/02/09 01:31:42;;;;;;;28.05;15.25;;;-1.20;99.90;;;;;;5054235;28;20036;-57
2023/02/09 01:34:12;;;;;;;29.02;13.75;;;-1.20;99.90;;;;;;5053975;28;20021;-56
2023/02/09 01:36:37;;;;;;;28.20;14.43;;;-1.30;99.90;;;;;;5054236;28;20028;-56
2023/02/09 01:39:03;;;;;;;30.95;16.23;;;-1.30;99.90;;;;;;5054169;28;20021;-58
2023/02/09 01:41:30;;;;;;;29.00;14.20;;;-1.40;99.90;;;;;;5053955;28;20032;-58
2023/02/09 01:44:00;;;;;;;27.23;14.88;;;-1.50;99.90;;;;;;5053464;28;20033;-56
2023/02/09 01:46:28;;;;;;;30.83;15.48;;;-1.50;99.90;;;;;;5053900;28;20029;-56
2023/02/09 01:49:03;;;;;;;26.10;13.98;;;-1.60;99.90;;;;;;5054037;28;20021;-53
2023/02/09 01:51:33;;;;;;;31.30;14.48;;;-1.60;99.90;;;;;;5053803;28;20104;-56
2023/02/09 01:54:03;;;;;;;32.58;15.57;;;-1.60;99.90;;;;;;5053506;28;20124;-53
2023/02/09 01:56:30;;;;;;;26.38;14.25;;;-1.70;99.90;;;;;;5054014;28;20037;-51
2023/02/09 01:58:56;;;;;;;30.42;15.10;;;-1.70;99.90;;;;;;5053750;28;20508;-56
2023/02/09 02:01:23;;;;;;;29.38;15.70;;;-1.70;99.90;;;;;;5053154;28;20033;-54
2023/02/09 02:03:49;;;;;;;29.63;15.55;;;-1.70;99.90;;;;;;5053294;28;20314;-56
2023/02/09 02:06:17;;;;;;;30.42;15.10;;;-1.70;99.90;;;;;;5053407;28;20182;-53
2023/02/09 02:08:45;;;;;;;29.38;15.32;;;-1.70;99.90;;;;;;5053542;28;20005;-51
2023/02/09 02:11:12;;;;;;;34.63;17.60;;;-1.70;99.90;;;;;;5053392;28;20021;-54
2023/02/09 02:13:37;;;;;;;28.10;15.38;;;-1.80;99.90;;;;;;5051873;28;20028;-53
2023/02/09 02:16:27;;;;;;;26.33;14.45;;;-1.70;99.90;;;;;;5053231;28;20103;-54
2023/02/09 02:19:07;;;;;;;29.33;15.95;;;-1.70;99.90;;;;;;5053620;28;20025;-54
2023/02/09 02:22:07;;;;;;;32.55;16.67;;;-1.70;99.90;;;;;;5053101;28;20500;-58
2023/02/09 02:25:01;;;;;;;29.83;15.48;;;-1.70;99.90;;;;;;5052940;28;20020;-55
2023/02/09 02:27:35;;;;;;;32.55;17.63;;;-1.70;99.90;;;;;;5053092;28;20029;-55
2023/02/09 02:30:29;;;;;;;32.88;15.75;;;-1.70;99.90;;;;;;5052913;28;20108;-55
2023/02/09 02:33:44;;;;;;;31.55;15.63;;;-1.80;99.90;;;;;;5052866;28;20052;-57
2023/02/09 02:36:39;;;;;;;28.98;14.93;;;-1.80;99.90;;;;;;5035502;28;20040;-55
2023/02/09 02:39:05;;;;;;;28.80;15.48;;;-1.70;99.90;;;;;;5002028;28;20045;-58
2023/02/09 02:44:36;;;;;;;33.78;14.98;;;-1.70;99.90;;;;;;5052851;28;20024;-52
2023/02/09 02:47:06;;;;;;;32.60;16.33;;;-1.70;99.90;;;;;;5052670;28;20023;-58
2023/02/09 02:49:52;;;;;;;32.97;16.80;;;-1.70;99.90;;;;;;5053107;28;20068;-56
2023/02/09 02:52:17;;;;;;;32.05;15.80;;;-1.70;99.90;;;;;;5034987;28;20119;-57
2023/02/09 02:55:14;;;;;;;37.08;15.77;;;-1.70;99.90;;;;;;5053175;28;20075;-55
2023/02/09 02:57:45;;;;;;;32.25;15.63;;;-1.70;99.90;;;;;;5033021;28;20043;-55
2023/02/09 03:00:22;;;;;;;35.60;17.25;;;-1.70;99.90;;;;;;5052556;28;20037;-55
2023/02/09 03:02:50;;;;;;;28.30;15.90;;;-1.70;99.90;;;;;;5054177;28;20124;-55
2023/02/09 03:05:17;;;;;;;36.10;17.73;;;-1.80;99.90;;;;;;5053551;28;20021;-56
2023/02/09 03:07:43;;;;;;;31.92;16.48;;;-1.90;99.90;;;;;;5054013;28;20370;-55
2023/02/09 03:10:33;;;;;;;34.40;16.88;;;-1.90;99.90;;;;;;5054286;28;20035;-58
2023/02/09 03:13:30;;;;;;;30.27;16.80;;;-1.90;99.90;;;;;;5054047;28;20028;-58
2023/02/09 03:16:11;;;;;;;32.55;17.05;;;-1.90;99.90;;;;;;5053602;28;20366;-53
2023/02/09 03:19:03;;;;;;;35.40;17.60;;;-1.90;99.90;;;;;;5053228;28;20025;-56
2023/02/09 03:21:28;;;;;;;33.83;17.98;;;-2.00;99.90;;;;;;5053738;28;20088;-57
2023/02/09 03:24:10;;;;;;;32.65;17.27;;;-2.00;99.90;;;;;;5053630;28;20461;-57
2023/02/09 03:26:48;;;;;;;31.80;17.45;;;-2.00;99.90;;;;;;5054217;28;20029;-58
2023/02/09 03:29:15;;;;;;;34.80;18.05;;;-2.10;99.90;;;;;;5054259;28;20535;-58
2023/02/09 03:31:41;;;;;;;33.67;17.00;;;-2.10;99.90;;;;;;5053880;28;20036;-58
2023/02/09 03:34:08;;;;;;;30.40;16.85;;;-2.20;99.90;;;;;;5053301;28;20025;-56
2023/02/09 03:36:36;;;;;;;37.08;17.58;;;-2.10;99.90;;;;;;5053617;28;20036;-58
2023/02/09 03:39:01;;;;;;;31.42;17.50;;;-2.10;99.90;;;;;;5053719;28;20031;-56
2023/02/09 03:41:27;;;;;;;34.42;17.63;;;-2.20;99.90;;;;;;5051795;28;20028;-53
2023/02/09 03:46:36;;;;;;;43.65;20.88;;;-2.20;99.90;;;;;;5051982;28;20070;-52
2023/02/09 03:49:02;;;;;;;34.38;19.52;;;-2.20;99.90;;;;;;5051733;28;20472;-51
2023/02/09 03:51:28;;;;;;;36.08;18.38;;;-2.20;99.90;;;;;;5051498;28;20078;-53
2023/02/09 03:53:53;;;;;;;37.20;17.88;;;-2.10;99.90;;;;;;5051157;28;20039;-53
2023/02/09 03:56:19;;;;;;;32.40;16.75;;;-2.10;99.90;;;;;;5051438;28;20071;-54
2023/02/09 03:58:44;;;;;;;35.33;17.40;;;-2.10;99.90;;;;;;5051440;28;20112;-55
2023/02/09 04:01:10;;;;;;;32.60;16.58;;;-2.10;99.90;;;;;;5051260;28;20445;-52
2023/02/09 04:03:38;;;;;;;33.92;18.60;;;-2.10;99.90;;;;;;5051268;28;20051;-52
2023/02/09 04:06:04;;;;;;;29.17;18.00;;;-2.10;99.90;;;;;;5051286;28;20024;-55
2023/02/09 04:08:32;;;;;;;37.92;19.42;;;-2.10;99.90;;;;;;5051349;28;20036;-54
2023/02/09 04:10:58;;;;;;;36.08;17.80;;;-2.20;99.90;;;;;;5051368;28;20025;-53
2023/02/09 04:13:24;;;;;;;35.83;16.90;;;-2.20;99.90;;;;;;5051180;28;20039;-53
2023/02/09 04:15:51;;;;;;;33.65;18.08;;;-2.30;99.90;;;;;;5051217;28;20024;-54
2023/02/09 04:18:16;;;;;;;32.90;17.20;;;-2.30;99.90;;;;;;5051411;28;20098;-56
2023/02/09 04:20:43;;;;;;;32.58;17.63;;;-2.30;99.90;;;;;;5051149;28;20076;-52
2023/02/09 04:23:08;;;;;;;31.85;17.90;;;-2.30;99.90;;;;;;5051590;28;20163;-58
2023/02/09 04:25:34;;;;;;;31.20;17.92;;;-2.30;99.90;;;;;;5051153;28;20432;-53
2023/02/09 04:27:59;;;;;;;38.28;17.30;;;-2.30;99.90;;;;;;5051340;28;20025;-56
2023/02/09 04:30:25;;;;;;;40.10;18.50;;;-2.20;99.90;;;;;;5033013;28;20425;-55
2023/02/09 04:32:51;;;;;;;33.38;17.40;;;-2.20;99.90;;;;;;5051039;28;20036;-52
2023/02/09 04:35:16;;;;;;;35.10;17.60;;;-2.20;99.90;;;;;;5050934;28;20029;-53
2023/02/09 04:37:42;;;;;;;34.75;17.13;;;-2.20;99.90;;;;;;5054525;28;20028;-53
2023/02/09 04:40:08;;;;;;;38.38;17.92;;;-2.20;99.90;;;;;;5037207;28;20494;-54
2023/02/09 04:42:34;;;;;;;37.97;18.60;;;-2.20;99.90;;;;;;5037015;28;20039;-53
2023/02/09 04:45:00;;;;;;;41.00;18.85;;;-2.20;99.90;;;;;;5054612;28;20092;-54
2023/02/09 04:47:25;;;;;;;38.67;17.42;;;-2.30;99.90;;;;;;5054872;28;20029;-53
2023/02/09 04:49:51;;;;;;;31.10;17.38;;;-2.30;99.90;;;;;;5054827;28;20021;-54
2023/02/09 04:52:17;;;;;;;30.73;17.48;;;-2.40;99.90;;;;;;5054776;28;20516;-54
2023/02/09 04:54:43;;;;;;;33.85;18.08;;;-2.40;99.90;;;;;;5054708;28;20022;-56
2023/02/09 04:59:52;;;;;;;34.60;18.42;;;-2.30;99.90;;;;;;5054900;28;20042;-54
2023/02/09 05:02:18;;;;;;;36.53;19.30;;;-2.30;99.90;;;;;;5054506;28;20480;-52
2023/02/09 05:04:44;;;;;;;43.03;19.10;;;-2.30;99.90;;;;;;5054273;28;20021;-52
2023/02/09 05:07:09;;;;;;;35.78;18.85;;;-2.30;99.90;;;;;;5054927;28;20109;-54
2023/02/09 05:09:35;;;;;;;38.72;20.08;;;-2.30;99.90;;;;;;5054453;28;20032;-55
2023/02/09 05:12:00;;;;;;;34.47;18.48;;;-2.40;99.90;;;;;;5054028;28;20499;-53
2023/02/09 05:14:26;;;;;;;37.97;17.55;;;-2.30;99.90;;;;;;5054230;28;20033;-56
2023/02/09 05:16:51;;;;;;;40.78;20.27;;;-2.30;99.90;;;;;;5054402;28;20049;-54
2023/02/09 05:19:17;;;;;;;33.30;18.85;;;-2.30;99.90;;;;;;5054494;28;20036;-52
2023/02/09 05:21:42;;;;;;;40.80;20.05;;;-2.30;99.90;;;;;;5054308;28;20112;-52
2023/02/09 05:24:08;;;;;;;36.00;18.25;;;-2.30;99.90;;;;;;5054171;28;20036;-51
2023/02/09 05:26:33;;;;;;;37.22;18.77;;;-2.40;99.90;;;;;;5054023;28;20021;-57
2023/02/09 05:28:59;;;;;;;38.67;18.40;;;-2.40;99.90;;;;;;5054144;28;20024;-53
2023/02/09 05:31:24;;;;;;;36.58;18.23;;;-2.50;99.90;;;;;;5036074;28;20033;-51
2023/02/09 05:33:49;;;;;;;36.53;18.83;;;-2.40;99.90;;;;;;5053651;28;20500;-54
2023/02/09 05:36:15;;;;;;;34.95;17.88;;;-2.40;99.90;;;;;;5054002;28;20075;-54
2023/02/09 05:38:40;;;;;;;39.55;18.00;;;-2.30;99.90;;;;;;5053935;28;20392;-53
2023/02/09 05:41:09;;;;;;;36.58;18.00;;;-2.40;99.90;;;;;;5035802;28;20091;-54
2023/02/09 05:43:35;;;;;;;38.08;17.70;;;-2.40;99.90;;;;;;5035648;28;20493;-54
2023/02/09 05:46:01;;;;;;;37.97;18.58;;;-2.40;99.90;;;;;;5053474;28;20060;-54
2023/02/09 05:48:27;;;;;;;35.60;19.65;;;-2.40;99.90;;;;;;5054303;28;20408;-54
2023/02/09 05:50:52;;;;;;;55.40;18.58;;;-2.40;99.90;;;;;;5053640;28;20028;-52
2023/02/09 05:53:17;;;;;;;37.60;17.55;;;-2.40;99.90;;;;;;5053413;28;20481;-56
2023/02/09 05:55:44;;;;;;;32.60;17.23;;;-2.40;99.90;;;;;;5053447;28;20108;-51
2023/02/09 05:58:10;;;;;;;30.73;17.42;;;-2.50;99.90;;;;;;5053570;28;20031;-55
2023/02/09 06:00:35;;;;;;;31.42;16.90;;;-2.60;99.90;;;;;;5035521;28;20021;-56
2023/02/09 06:03:01;;;;;;;32.03;17.25;;;-2.50;99.90;;;;;;5053105;28;20499;-53
2023/02/09 06:05:28;;;;;;;32.53;18.75;;;-2.60;99.90;;;;;;5053255;28;20025;-56
2023/02/09 06:07:54;;;;;;;33.88;17.23;;;-2.70;99.90;;;;;;5053365;28;20044;-56
2023/02/09 06:10:20;;;;;;;33.47;17.45;;;-2.70;99.90;;;;;;5035623;28;20021;-54
2023/02/09 06:12:45;;;;;;;34.55;17.55;;;-2.80;99.90;;;;;;5053195;28;20403;-54
2023/02/09 06:15:11;;;;;;;33.28;17.13;;;-2.80;99.90;;;;;;5053182;28;20404;-53
2023/02/09 06:17:37;;;;;;;32.53;19.17;;;-2.90;99.90;;;;;;5053140;28;20072;-50
2023/02/09 06:20:02;;;;;;;29.67;17.55;;;-2.90;99.90;;;;;;5052689;28;20033;-51
2023/02/09 06:22:30;;;;;;;33.03;16.70;;;-2.90;99.90;;;;;;5053099;28;20079;-53
2023/02/09 06:24:56;;;;;;;29.42;16.02;;;-2.90;99.90;;;;;;5052734;28;20100;-54
2023/02/09 06:27:21;;;;;;;33.50;16.98;;;-3.00;99.90;;;;;;5052886;28;20112;-56
2023/02/09 06:29:47;;;;;;;33.35;16.75;;;-3.00;99.90;;;;;;5034834;28;20052;-53
2023/02/09 06:32:12;;;;;;;36.78;17.90;;;-3.00;99.90;;;;;;5034924;28;20036;-53
2023/02/09 06:34:38;;;;;;;33.42;17.85;;;-2.90;99.90;;;;;;5052526;28;20493;-55
2023/02/09 06:37:03;;;;;;;33.70;18.10;;;-3.00;99.90;;;;;;5034998;28;20025;-56
2023/02/09 06:39:29;;;;;;;34.25;18.67;;;-3.00;99.90;;;;;;5052694;28;20029;-54
2023/02/09 06:41:54;;;;;;;34.05;17.45;;;-3.00;99.90;;;;;;5052691;28;20450;-52
2023/02/09 06:44:20;;;;;;;36.08;18.73;;;-3.00;99.90;;;;;;5034440;28;20607;-54
2023/02/09 06:46:45;;;;;;;38.17;20.27;;;-3.10;99.90;;;;;;5052664;28;20021;-52
2023/02/09 06:49:11;;;;;;;37.03;18.15;;;-3.00;99.90;;;;;;5052528;28;20017;-56
2023/02/09 06:51:36;;;;;;;33.38;17.50;;;-3.00;99.90;;;;;;5034920;28;20052;-55
2023/02/09 06:54:02;;;;;;;31.13;16.98;;;-3.00;99.90;;;;;;5052281;28;20036;-55
2023/02/09 06:56:27;;;;;;;31.90;16.92;;;-3.00;99.90;;;;;;5052170;28;20025;-56
2023/02/09 06:58:53;;;;;;;35.47;19.13;;;-2.90;99.90;;;;;;5033835;28;20021;-54
2023/02/09 07:01:18;;;;;;;38.42;18.83;;;-2.80;99.90;;;;;;5052209;28;20047;-55
2023/02/09 07:03:44;;;;;;;38.10;18.60;;;-2.60;99.90;;;;;;5052133;28;20032;-56
2023/02/09 07:06:16;;;;;;;38.45;20.88;;;-2.40;99.90;;;;;;5052400;28;20477;-53
2023/02/09 07:08:42;;;;;;;38.15;18.02;;;-2.00;99.90;;;;;;5052270;28;20024;-55
2023/02/09 07:11:12;;;;;;;38.65;19.80;;;-1.70;99.90;;;;;;5034355;28;20108;-55
2023/02/09 07:13:37;;;;;;;39.97;19.58;;;-1.30;99.90;;;;;;5051802;28;20036;-54
2023/02/09 07:16:05;;;;;;;37.00;19.67;;;-1.00;99.90;;;;;;5052257;28;20439;-56
2023/02/09 07:18:31;;;;;;;36.47;20.02;;;-0.60;99.90;;;;;;5052269;28;20021;-54
2023/02/09 07:21:02;;;;;;;38.17;19.83;;;-0.40;99.90;;;;;;5052084;28;20028;-55
2023/02/09 07:23:28;;;;;;;42.95;19.48;;;-0.20;99.90;;;;;;5033907;28;20074;-56
2023/02/09 07:25:54;;;;;;;41.65;19.08;;;-0.20;99.90;;;;;;5051639;28;20089;-55
2023/02/09 07:28:19;;;;;;;39.65;21.42;;;-0.50;99.90;;;;;;5034017;28;20017;-52
2023/02/09 07:30:50;;;;;;;40.72;18.90;;;-0.90;99.90;;;;;;5051505;28;20518;-53
2023/02/09 07:33:20;;;;;;;39.70;20.20;;;-1.10;99.90;;;;;;5051839;28;20028;-52
2023/02/09 07:35:46;;;;;;;43.03;20.92;;;-1.20;99.90;;;;;;5051602;28;20017;-54
2023/02/09 07:38:12;;;;;;;43.30;21.33;;;-1.30;99.90;;;;;;5051672;28;20029;-51
2023/02/09 07:40:37;;;;;;;35.83;18.95;;;-1.50;99.90;;;;;;5051675;28;20391;-53
2023/02/09 07:43:06;;;;;;;40.97;20.05;;;-1.70;99.90;;;;;;5051109;28;20123;-51
2023/02/09 07:45:32;;;;;;;34.47;17.83;;;-1.70;99.90;;;;;;5051794;28;20106;-52
2023/02/09 07:47:58;;;;;;;40.10;19.30;;;-1.80;99.90;;;;;;5051846;28;20441;-55
2023/02/09 07:50:23;;;;;;;40.22;19.83;;;-1.80;99.90;;;;;;5051985;28;20048;-52
2023/02/09 07:52:52;;;;;;;35.53;19.10;;;-1.80;99.90;;;;;;5051901;28;20029;-53
2023/02/09 07:55:17;;;;;;;32.67;18.75;;;-1.80;99.90;;;;;;5051437;28;20049;-53
2023/02/09 07:57:43;;;;;;;36.30;18.90;;;-1.80;99.90;;;;;;5051498;28;20104;-53
2023/02/09 08:00:09;;;;;;;35.80;18.55;;;-1.70;99.90;;;;;;5033628;28;20029;-54
2023/02/09 08:02:36;;;;;;;36.78;18.63;;;-1.70;99.90;;;;;;5050984;28;20028;-55
2023/02/09 08:05:07;;;;;;;36.20;18.35;;;-1.60;99.90;;;;;;5051577;28;20037;-56
2023/02/09 08:07:33;;;;;;;43.55;18.65;;;-1.60;99.90;;;;;;5051384;28;20028;-54
2023/02/09 08:09:58;;;;;;;32.40;18.38;;;-1.60;99.90;;;;;;5051178;28;20029;-53
2023/02/09 08:15:13;;;;;;;32.53;18.27;;;-1.50;99.90;;;;;;5051318;28;20040;-57
2023/02/09 08:17:39;;;;;;;42.00;20.23;;;-1.50;99.90;;;;;;5033346;28;20055;-55
2023/02/09 08:20:09;;;;;;;35.55;19.48;;;-1.40;99.90;;;;;;5051125;28;20524;-53
2023/02/09 08:22:40;;;;;;;41.85;19.75;;;-1.40;99.90;;;;;;5033321;28;20419;-54
2023/02/09 08:25:06;;;;;;;33.55;18.95;;;-1.30;99.90;;;;;;5033199;28;20021;-53
2023/02/09 08:27:33;;;;;;;39.05;18.08;;;-1.30;99.90;;;;;;5050985;28;20029;-58
2023/02/09 08:30:00;;;;;;;33.53;18.80;;;-1.10;99.90;;;;;;5050989;28;20025;-52
2023/02/09 08:32:25;;;;;;;40.25;19.73;;;-1.20;99.90;;;;;;5050936;28;20091;-58
2023/02/09 08:34:51;;;;;;;37.22;18.52;;;-1.20;99.90;;;;;;5043522;28;20029;-63
2023/02/09 08:37:16;;;;;;;40.50;19.65;;;-1.20;99.90;;;;;;5050984;28;20053;-60
2023/02/09 08:39:43;;;;;;;36.60;18.95;;;-1.20;99.90;;;;;;5037837;28;20040;-61
2023/02/09 08:42:08;;;;;;;35.40;20.08;;;-1.00;99.90;;;;;;5049247;28;20075;-55
2023/02/09 08:44:34;;;;;;;33.72;18.90;;;-1.00;99.90;;;;;;5046439;28;20033;-62
2023/02/09 08:47:00;;;;;;;34.22;18.42;;;-1.00;99.90;;;;;;5050532;28;20114;-59
2023/02/09 08:49:26;;;;;;;38.97;18.73;;;-0.90;99.90;;;;;;5050870;28;20028;-57
2023/02/09 08:51:52;;;;;;;32.75;19.08;;;-0.90;99.90;;;;;;5049382;28;20025;-61
2023/02/09 08:54:18;;;;;;;37.53;18.30;;;-0.90;99.90;;;;;;5050682;28;20102;-60
2023/02/09 08:56:43;;;;;;;37.95;18.52;;;-0.90;99.90;;;;;;5050638;28;20055;-62
2023/02/09 08:59:09;;;;;;;33.05;18.73;;;-0.80;99.90;;;;;;5050650;28;20040;-58
2023/02/09 09:01:35;;;;;;;36.20;18.10;;;-0.70;99.90;;;;;;5050596;28;20627;-59
2023/02/09 09:04:00;;;;;;;40.20;19.30;;;-0.60;99.90;;;;;;5050490;28;20096;-58
2023/02/09 09:06:26;;;;;;;37.22;19.35;;;-0.60;99.90;;;;;;5050813;28;20075;-61
2023/02/09 09:08:51;;;;;;;30.77;17.80;;;-0.50;99.90;;;;;;5050801;28;20447;-63
2023/02/09 09:11:17;;;;;;;34.80;18.27;;;-0.40;99.90;;;;;;5050533;28;20021;-59
2023/02/09 09:13:43;;;;;;;38.60;19.60;;;-0.30;99.90;;;;;;5050339;28;20473;-61
2023/02/09 09:16:18;;;;;;;29.90;18.17;;;-0.20;99.90;;;;;;5032495;28;20051;-60
2023/02/09 09:18:44;;;;;;;33.57;19.07;;;-0.20;99.90;;;;;;5050636;28;20074;-59
2023/02/09 09:21:11;;;;;;;34.92;18.77;;;-0.10;99.90;;;;;;5050671;28;20271;-58
2023/02/09 09:23:37;;;;;;;35.22;18.75;;;1.10;99.90;;;;;;5053116;28;20568;-56
2023/02/09 09:26:06;;;;;;;32.25;18.13;;;;;;;;;;5036295;28;20021;-60
2023/02/09 09:28:32;;;;;;;34.08;18.58;;;3.20;99.90;;;;;;5054085;28;20079;-60
2023/02/09 09:31:04;;;;;;;33.03;18.30;;;4.60;99.90;;;;;;5053861;28;20468;-57
2023/02/09 09:33:31;;;;;;;32.80;18.65;;;4.70;99.90;;;;;;5054035;28;20021;-59
2023/02/09 09:36:01;;;;;;;31.63;17.13;;;5.80;98.70;;;;;;5053714;28;20492;-60
2023/02/09 09:38:27;;;;;;;28.92;17.00;;;6.70;96.60;;;;;;5046274;28;20404;-61
2023/02/09 09:40:53;;;;;;;30.75;16.42;;;;;;;;;;5049546;28;20029;-59
2023/02/09 09:43:31;;;;;;;28.48;17.65;;;8.00;93.60;;;;;;5028888;28;20028;-59
2023/02/09 09:45:57;;;;;;;27.52;17.88;;;8.60;93.30;;;;;;5053568;28;20029;-60
2023/02/09 09:48:25;;;;;;;25.27;18.42;;;9.10;91.70;;;;;;5046909;28;20022;-61
2023/02/09 09:51:10;;;;;;;25.27;16.17;;;9.40;94.80;;;;;;5033623;28;20473;-54
2023/02/09 09:53:36;;;;;;;29.30;17.98;;;;;;;;;;5034597;28;20030;-60
2023/02/09 09:56:06;;;;;;;26.08;17.10;;;9.70;90.30;;;;;;5041419;28;20486;-62
2023/02/09 09:58:33;;;;;;;30.85;17.23;;;9.90;89.10;;;;;;5053591;28;20040;-63
2023/02/09 10:00:59;;;;;;;23.67;16.50;;;10.10;88.30;;;;;;5052921;28;20017;-63
2023/02/09 10:03:25;;;;;;;29.00;18.48;;;10.30;87.60;;;;;;5036921;28;20032;-62
2023/02/09 10:05:58;;;;;;;26.25;17.35;;;10.40;86.10;;;;;;5045966;28;20388;-57
2023/02/09 10:08:34;;;;;;;25.17;16.92;;;10.20;85.10;;;;;;5046631;28;20077;-61
2023/02/09 10:11:04;;;;;;;28.77;17.38;;;9.70;85.30;;;;;;5053225;28;20032;-55
2023/02/09 10:13:52;;;;;;;24.52;17.50;;;9.60;86.50;;;;;;5053135;28;20119;-56
2023/02/09 10:16:33;;;;;;;25.92;16.88;;;9.30;86.50;;;;;;5053270;28;20063;-59
2023/02/09 10:19:03;;;;;;;24.75;16.70;;;9.30;86.40;;;;;;5053018;28;20040;-59
2023/02/09 10:21:34;;;;;;;23.65;14.75;;;9.70;87.00;;;;;;5028224;28;20081;-56
2023/02/09 10:24:00;;;;;;;24.58;15.75;;;;;;;;;;5041353;28;20536;-56
2023/02/09 10:26:31;;;;;;;21.00;15.60;;;10.30;80.30;;;;;;5052760;28;20151;-58
2023/02/09 10:29:05;;;;;;;25.25;15.90;;;10.30;81.10;;;;;;5037971;28;20022;-57
2023/02/09 10:31:32;;;;;;;22.55;16.42;;;10.20;82.90;;;;;;5032843;28;20033;-58
2023/02/09 10:34:08;;;;;;;24.33;15.93;;;10.20;81.10;;;;;;5013921;28;20021;-55
2023/02/09 10:36:52;;;;;;;20.25;15.25;;;9.50;82.40;;;;;;5018034;28;20021;-55
2023/02/09 10:39:22;;;;;;;24.73;16.63;;;9.80;83.40;;;;;;5042813;28;20151;-60
2023/02/09 10:41:51;;;;;;;24.83;16.35;;;9.50;83.20;;;;;;5043761;28;20546;-58
2023/02/09 10:44:21;;;;;;;25.08;16.40;;;9.20;82.50;;;;;;5052240;28;20464;-58
2023/02/09 10:46:47;;;;;;;25.58;15.43;;;8.70;84.30;;;;;;5034375;28;20021;-59
2023/02/09 10:49:32;;;;;;;25.67;17.00;;;8.40;86.40;;;;;;5052533;28;20021;-61
2023/02/09 10:52:24;;;;;;;23.38;15.07;;;8.10;86.90;;;;;;5035245;28;20025;-57
2023/02/09 10:54:58;;;;;;;26.88;16.17;;;7.70;88.70;;;;;;5030415;28;20408;-60
2023/02/09 10:57:34;;;;;;;28.10;16.50;;;7.10;89.90;;;;;;5033247;28;20037;-60
2023/02/09 11:00:14;;;;;;;29.20;17.88;;;6.60;91.50;;;;;;5052350;28;20032;-60
2023/02/09 11:02:47;;;;;;;30.92;17.08;;;6.50;91.90;;;;;;5034377;28;20021;-59
2023/02/09 11:05:21;;;;;;;27.75;16.95;;;6.30;92.30;;;;;;5051115;28;20365;-55
2023/02/09 11:08:21;;;;;;;33.97;18.20;;;6.10;92.40;;;;;;5055771;28;20553;-60
2023/02/09 11:11:08;;;;;;;29.67;17.45;;;5.80;92.80;;;;;;5050734;28;20032;-58
2023/02/09 11:13:34;;;;;;;27.98;17.10;;;5.60;93.20;;;;;;5047775;28;20044;-61
2023/02/09 11:16:24;;;;;;;31.08;17.05;;;5.50;93.20;;;;;;5033293;28;20032;-56
2023/02/09 11:19:21;;;;;;;37.42;16.90;;;5.50;94.10;;;;;;5048262;28;20025;-54
2023/02/09 11:22:01;;;;;;;32.72;17.20;;;5.20;94.90;;;;;;5025663;28;20614;-59
2023/02/09 11:24:49;;;;;;;30.02;16.95;;;5.00;95.60;;;;;;5052705;28;20025;-60
2023/02/09 11:27:34;;;;;;;28.88;16.75;;;4.90;95.90;;;;;;5064031;28;20056;-60
2023/02/09 11:30:06;;;;;;;30.52;16.95;;;4.60;96.40;;;;;;5050573;28;20025;-59
2023/02/09 11:32:59;;;;;;;28.15;17.83;;;4.20;96.80;;;;;;5047523;28;20037;-53
2023/02/09 11:35:37;;;;;;;30.83;17.67;;;4.00;97.70;;;;;;5050919;28;20029;-49
2023/02/09 11:38:09;;;;;;;29.05;17.13;;;3.70;98.50;;;;;;5026101;28;20071;-51
2023/02/09 11:40:52;;;;;;;29.27;17.10;;;3.50;99.00;;;;;;5032146;28;20064;-53
2023/02/09 11:43:38;;;;;;;30.92;18.08;;;3.30;99.50;;;;;;5032770;28;20032;-48
2023/02/09 11:46:11;;;;;;;29.45;16.52;;;3.30;99.90;;;;;;5041243;28;20025;-49
2023/02/09 11:48:45;;;;;;;33.40;18.02;;;3.30;99.90;;;;;;5043083;28;20052;-53
2023/02/09 11:51:23;;;;;;;28.10;17.10;;;3.20;99.90;;;;;;5043154;28;20082;-56
2023/02/09 11:54:06;;;;;;;33.30;17.88;;;3.30;99.90;;;;;;5042690;28;20100;-51
2023/02/09 11:56:38;;;;;;;28.88;16.33;;;3.30;99.90;;;;;;5050679;28;20032;-57
2023/02/09 11:59:21;;;;;;;32.85;18.30;;;3.20;99.90;;;;;;5048674;28;20102;-51
2023/02/09 12:02:00;;;;;;;34.70;18.02;;;3.20;99.90;;;;;;5050342;28;20029;-56
2023/02/09 12:04:45;;;;;;;28.00;17.77;;;3.10;99.90;;;;;;5032105;28;20052;-52
2023/02/09 12:07:19;;;;;;;33.10;18.20;;;3.10;99.90;;;;;;5031739;28;20032;-50
2023/02/09 12:10:09;;;;;;;28.75;17.10;;;3.00;99.90;;;;;;5047476;28;20040;-57
2023/02/09 12:13:02;;;;;;;28.13;18.17;;;3.00;99.90;;;;;;5032883;28;20174;-54
2023/02/09 12:15:50;;;;;;;31.33;18.35;;;3.10;99.90;;;;;;5027748;28;20033;-53
2023/02/09 12:18:19;;;;;;;32.35;18.20;;;3.10;99.90;;;;;;5030669;28;20079;-55
2023/02/09 12:20:55;;;;;;;30.65;17.20;;;3.00;99.90;;;;;;5049159;28;20056;-54
2023/02/09 12:23:32;;;;;;;29.40;17.73;;;3.10;99.90;;;;;;5050307;28;20081;-52
2023/02/09 12:26:00;;;;;;;34.05;18.67;;;3.00;99.90;;;;;;5044252;28;20114;-52
2023/02/09 12:28:26;;;;;;;29.75;17.38;;;2.90;99.90;;;;;;5050691;28;20024;-60
2023/02/09 12:30:51;;;;;;;26.75;17.27;;;3.00;99.90;;;;;;5047576;28;20127;-59
2023/02/09 12:33:22;;;;;;;31.25;18.17;;;3.10;99.90;;;;;;5048605;28;20052;-51
2023/02/09 12:36:11;;;;;;;33.85;18.90;;;3.10;99.90;;;;;;5032176;28;20025;-57
2023/02/09 12:38:42;;;;;;;32.80;18.42;;;3.00;99.90;;;;;;5031784;28;20128;-58
2023/02/09 12:41:09;;;;;;;30.38;17.25;;;3.10;99.90;;;;;;5046757;28;20099;-57
2023/02/09 12:43:36;;;;;;;29.42;18.27;;;3.10;99.90;;;;;;5049424;28;20430;-58
2023/02/09 12:46:20;;;;;;;32.10;18.42;;;3.20;99.90;;;;;;5045993;28;20029;-57
2023/02/09 12:49:00;;;;;;;30.73;17.55;;;3.20;99.90;;;;;;5036566;28;20512;-59
2023/02/09 12:51:56;;;;;;;34.00;19.70;;;3.20;99.90;;;;;;5040112;28;20112;-54
2023/02/09 12:54:25;;;;;;;;;;;3.30;99.90;;;;;;5050407;28;20044;-61
2023/02/09 12:56:51;;;;;;;35.88;18.58;;;3.40;99.90;;;;;;5069231;22;19913;-55